sensor_id;sensor_type;location;lat;lon;timestamp;P1;durP1;ratioP1;P2;durP2;ratioP2
17151;SDS011;8691;50.828;4.700;2023-11-19T00:02:14;2.90;;;1.70;;
17151;SDS011;8691;50.828;4.700;2023-11-19T00:04:41;3.87;;;1.40;;
17151;SDS011;8691;50.828;4.700;2023-11-19T00:07:08;2.97;;;1.60;;
17151;SDS011;8691;50.828;4.700;2023-11-19T00:09:35;2.80;;;1.60;;
17151;SDS011;8691;50.828;4.700;2023-11-19T00:12:02;7.30;;;2.00;;
17151;SDS011;8691;50.828;4.700;2023-11-19T00:14:28;3.20;;;1.80;;
17151;SDS011;8691;50.828;4.700;2023-11-19T00:16:55;3.83;;;1.70;;
17151;SDS011;8691;50.828;4.700;2023-11-19T00:19:22;2.70;;;1.80;;
17151;SDS011;8691;50.828;4.700;2023-11-19T00:21:49;4.57;;;1.80;;
17151;SDS011;8691;50.828;4.700;2023-11-19T00:24:16;4.83;;;1.80;;
17151;SDS011;8691;50.828;4.700;2023-11-19T00:26:43;3.77;;;2.00;;
17151;SDS011;8691;50.828;4.700;2023-11-19T00:29:10;5.50;;;2.00;;
17151;SDS011;8691;50.828;4.700;2023-11-19T00:31:37;2.10;;;1.53;;
17151;SDS011;8691;50.828;4.700;2023-11-19T00:34:04;4.07;;;1.60;;
17151;SDS011;8691;50.828;4.700;2023-11-19T00:36:31;3.87;;;1.90;;
17151;SDS011;8691;50.828;4.700;2023-11-19T00:38:58;4.03;;;1.57;;
17151;SDS011;8691;50.828;4.700;2023-11-19T00:41:25;3.97;;;1.77;;
17151;SDS011;8691;50.828;4.700;2023-11-19T00:43:52;7.77;;;1.80;;
17151;SDS011;8691;50.828;4.700;2023-11-19T00:46:19;2.70;;;1.60;;
17151;SDS011;8691;50.828;4.700;2023-11-19T00:48:46;8.23;;;1.97;;
17151;SDS011;8691;50.828;4.700;2023-11-19T00:51:13;2.60;;;1.90;;
17151;SDS011;8691;50.828;4.700;2023-11-19T00:53:40;5.77;;;2.03;;
17151;SDS011;8691;50.828;4.700;2023-11-19T00:56:07;6.37;;;1.90;;
17151;SDS011;8691;50.828;4.700;2023-11-19T00:58:33;9.40;;;2.17;;
17151;SDS011;8691;50.828;4.700;2023-11-19T01:01:00;9.53;;;2.13;;
17151;SDS011;8691;50.828;4.700;2023-11-19T01:03:27;2.40;;;1.53;;
17151;SDS011;8691;50.828;4.700;2023-11-19T01:05:54;7.10;;;2.30;;
17151;SDS011;8691;50.828;4.700;2023-11-19T01:08:21;7.33;;;1.90;;
17151;SDS011;8691;50.828;4.700;2023-11-19T01:10:48;10.73;;;2.27;;
17151;SDS011;8691;50.828;4.700;2023-11-19T01:13:15;7.97;;;2.10;;
17151;SDS011;8691;50.828;4.700;2023-11-19T01:15:41;7.07;;;1.90;;
17151;SDS011;8691;50.828;4.700;2023-11-19T01:18:08;11.37;;;2.73;;
17151;SDS011;8691;50.828;4.700;2023-11-19T01:20:35;3.57;;;2.03;;
17151;SDS011;8691;50.828;4.700;2023-11-19T01:23:01;8.47;;;2.03;;
17151;SDS011;8691;50.828;4.700;2023-11-19T01:25:28;10.37;;;2.03;;
17151;SDS011;8691;50.828;4.700;2023-11-19T01:27:54;9.47;;;2.30;;
17151;SDS011;8691;50.828;4.700;2023-11-19T01:30:21;9.00;;;1.67;;
17151;SDS011;8691;50.828;4.700;2023-11-19T01:32:48;7.30;;;1.57;;
17151;SDS011;8691;50.828;4.700;2023-11-19T01:35:15;7.23;;;1.90;;
17151;SDS011;8691;50.828;4.700;2023-11-19T01:37:42;8.87;;;2.20;;
17151;SDS011;8691;50.828;4.700;2023-11-19T01:40:09;12.47;;;2.53;;
17151;SDS011;8691;50.828;4.700;2023-11-19T01:42:39;12.93;;;2.20;;
17151;SDS011;8691;50.828;4.700;2023-11-19T01:45:06;6.03;;;1.70;;
17151;SDS011;8691;50.828;4.700;2023-11-19T01:47:33;9.53;;;2.07;;
17151;SDS011;8691;50.828;4.700;2023-11-19T01:50:01;11.13;;;2.03;;
17151;SDS011;8691;50.828;4.700;2023-11-19T01:52:27;8.43;;;1.80;;
17151;SDS011;8691;50.828;4.700;2023-11-19T01:54:55;9.53;;;1.90;;
17151;SDS011;8691;50.828;4.700;2023-11-19T01:57:22;7.53;;;2.23;;
17151;SDS011;8691;50.828;4.700;2023-11-19T01:59:49;4.43;;;2.40;;
17151;SDS011;8691;50.828;4.700;2023-11-19T02:02:15;13.37;;;2.30;;
17151;SDS011;8691;50.828;4.700;2023-11-19T02:04:43;8.07;;;2.03;;
17151;SDS011;8691;50.828;4.700;2023-11-19T02:07:09;6.57;;;2.30;;
17151;SDS011;8691;50.828;4.700;2023-11-19T02:09:37;6.80;;;1.80;;
17151;SDS011;8691;50.828;4.700;2023-11-19T02:12:03;15.03;;;2.30;;
17151;SDS011;8691;50.828;4.700;2023-11-19T02:14:30;15.70;;;2.20;;
17151;SDS011;8691;50.828;4.700;2023-11-19T02:16:57;12.57;;;2.07;;
17151;SDS011;8691;50.828;4.700;2023-11-19T02:19:23;8.37;;;2.10;;
17151;SDS011;8691;50.828;4.700;2023-11-19T02:21:50;7.13;;;2.27;;
17151;SDS011;8691;50.828;4.700;2023-11-19T02:24:16;10.23;;;2.47;;
17151;SDS011;8691;50.828;4.700;2023-11-19T02:26:58;10.77;;;1.97;;
17151;SDS011;8691;50.828;4.700;2023-11-19T02:29:22;14.27;;;2.37;;
17151;SDS011;8691;50.828;4.700;2023-11-19T02:31:49;13.27;;;2.90;;
17151;SDS011;8691;50.828;4.700;2023-11-19T02:34:15;10.10;;;2.30;;
17151;SDS011;8691;50.828;4.700;2023-11-19T02:36:43;15.00;;;3.00;;
17151;SDS011;8691;50.828;4.700;2023-11-19T02:39:09;9.73;;;2.03;;
17151;SDS011;8691;50.828;4.700;2023-11-19T02:41:37;15.17;;;3.00;;
17151;SDS011;8691;50.828;4.700;2023-11-19T02:44:03;9.13;;;2.17;;
17151;SDS011;8691;50.828;4.700;2023-11-19T02:46:30;12.53;;;2.20;;
17151;SDS011;8691;50.828;4.700;2023-11-19T02:48:57;10.80;;;2.20;;
17151;SDS011;8691;50.828;4.700;2023-11-19T02:51:23;12.23;;;2.80;;
17151;SDS011;8691;50.828;4.700;2023-11-19T02:53:50;11.40;;;2.10;;
17151;SDS011;8691;50.828;4.700;2023-11-19T02:56:16;13.50;;;2.63;;
17151;SDS011;8691;50.828;4.700;2023-11-19T02:58:46;8.80;;;1.87;;
17151;SDS011;8691;50.828;4.700;2023-11-19T03:01:12;10.53;;;1.80;;
17151;SDS011;8691;50.828;4.700;2023-11-19T03:03:39;7.27;;;1.77;;
17151;SDS011;8691;50.828;4.700;2023-11-19T03:06:07;4.77;;;1.77;;
17151;SDS011;8691;50.828;4.700;2023-11-19T03:08:34;15.87;;;2.50;;
17151;SDS011;8691;50.828;4.700;2023-11-19T03:11:00;10.77;;;2.27;;
17151;SDS011;8691;50.828;4.700;2023-11-19T03:13:26;11.53;;;2.13;;
17151;SDS011;8691;50.828;4.700;2023-11-19T03:15:53;11.27;;;2.37;;
17151;SDS011;8691;50.828;4.700;2023-11-19T03:18:20;10.47;;;2.23;;
17151;SDS011;8691;50.828;4.700;2023-11-19T03:20:46;11.53;;;1.67;;
17151;SDS011;8691;50.828;4.700;2023-11-19T03:23:13;9.33;;;1.90;;
17151;SDS011;8691;50.828;4.700;2023-11-19T03:25:40;10.77;;;2.23;;
17151;SDS011;8691;50.828;4.700;2023-11-19T03:28:07;10.60;;;1.73;;
17151;SDS011;8691;50.828;4.700;2023-11-19T03:30:34;9.77;;;2.43;;
17151;SDS011;8691;50.828;4.700;2023-11-19T03:33:01;9.93;;;2.33;;
17151;SDS011;8691;50.828;4.700;2023-11-19T03:35:28;9.90;;;2.67;;
17151;SDS011;8691;50.828;4.700;2023-11-19T03:37:55;15.33;;;2.40;;
17151;SDS011;8691;50.828;4.700;2023-11-19T03:40:21;15.60;;;2.10;;
17151;SDS011;8691;50.828;4.700;2023-11-19T03:42:48;9.90;;;1.80;;
17151;SDS011;8691;50.828;4.700;2023-11-19T03:45:14;9.50;;;2.20;;
17151;SDS011;8691;50.828;4.700;2023-11-19T03:47:41;15.70;;;3.40;;
17151;SDS011;8691;50.828;4.700;2023-11-19T03:50:08;10.35;;;2.70;;
17151;SDS011;8691;50.828;4.700;2023-11-19T03:52:35;9.62;;;2.78;;
17151;SDS011;8691;50.828;4.700;2023-11-19T03:55:02;7.77;;;1.73;;
17151;SDS011;8691;50.828;4.700;2023-11-19T03:57:31;8.50;;;2.37;;
17151;SDS011;8691;50.828;4.700;2023-11-19T03:59:58;8.90;;;1.90;;
17151;SDS011;8691;50.828;4.700;2023-11-19T04:02:25;6.17;;;1.80;;
17151;SDS011;8691;50.828;4.700;2023-11-19T04:04:51;16.13;;;2.00;;
17151;SDS011;8691;50.828;4.700;2023-11-19T04:07:18;10.43;;;2.10;;
17151;SDS011;8691;50.828;4.700;2023-11-19T04:09:44;14.30;;;3.05;;
17151;SDS011;8691;50.828;4.700;2023-11-19T04:12:11;14.93;;;2.67;;
17151;SDS011;8691;50.828;4.700;2023-11-19T04:14:38;11.97;;;2.70;;
17151;SDS011;8691;50.828;4.700;2023-11-19T04:17:05;13.25;;;2.92;;
17151;SDS011;8691;50.828;4.700;2023-11-19T04:19:32;9.13;;;2.10;;
17151;SDS011;8691;50.828;4.700;2023-11-19T04:21:59;10.80;;;2.30;;
17151;SDS011;8691;50.828;4.700;2023-11-19T04:24:26;7.90;;;1.93;;
17151;SDS011;8691;50.828;4.700;2023-11-19T04:26:53;11.07;;;2.23;;
17151;SDS011;8691;50.828;4.700;2023-11-19T04:29:20;8.57;;;2.30;;
17151;SDS011;8691;50.828;4.700;2023-11-19T04:31:47;13.33;;;2.33;;
17151;SDS011;8691;50.828;4.700;2023-11-19T04:34:14;9.67;;;2.67;;
17151;SDS011;8691;50.828;4.700;2023-11-19T04:36:41;14.37;;;2.50;;
17151;SDS011;8691;50.828;4.700;2023-11-19T04:39:08;8.00;;;2.03;;
17151;SDS011;8691;50.828;4.700;2023-11-19T04:41:48;9.53;;;2.07;;
17151;SDS011;8691;50.828;4.700;2023-11-19T04:44:17;13.77;;;2.57;;
17151;SDS011;8691;50.828;4.700;2023-11-19T04:46:44;9.40;;;2.10;;
17151;SDS011;8691;50.828;4.700;2023-11-19T04:49:11;11.87;;;1.90;;
17151;SDS011;8691;50.828;4.700;2023-11-19T04:51:38;10.67;;;2.57;;
17151;SDS011;8691;50.828;4.700;2023-11-19T04:54:04;12.73;;;2.40;;
17151;SDS011;8691;50.828;4.700;2023-11-19T04:56:31;6.33;;;1.73;;
17151;SDS011;8691;50.828;4.700;2023-11-19T04:58:57;12.20;;;3.00;;
17151;SDS011;8691;50.828;4.700;2023-11-19T05:01:24;11.17;;;2.67;;
17151;SDS011;8691;50.828;4.700;2023-11-19T05:03:50;12.53;;;2.33;;
17151;SDS011;8691;50.828;4.700;2023-11-19T05:06:18;14.87;;;2.40;;
17151;SDS011;8691;50.828;4.700;2023-11-19T05:08:44;18.23;;;2.70;;
17151;SDS011;8691;50.828;4.700;2023-11-19T05:11:12;24.23;;;3.23;;
17151;SDS011;8691;50.828;4.700;2023-11-19T05:13:38;13.43;;;3.03;;
17151;SDS011;8691;50.828;4.700;2023-11-19T05:16:05;13.87;;;2.77;;
17151;SDS011;8691;50.828;4.700;2023-11-19T05:18:32;11.83;;;2.20;;
17151;SDS011;8691;50.828;4.700;2023-11-19T05:20:59;18.87;;;2.53;;
17151;SDS011;8691;50.828;4.700;2023-11-19T05:23:25;14.87;;;2.37;;
17151;SDS011;8691;50.828;4.700;2023-11-19T05:25:52;16.73;;;3.50;;
17151;SDS011;8691;50.828;4.700;2023-11-19T05:28:19;17.83;;;3.70;;
17151;SDS011;8691;50.828;4.700;2023-11-19T05:30:46;13.73;;;2.83;;
17151;SDS011;8691;50.828;4.700;2023-11-19T05:33:12;11.77;;;2.80;;
17151;SDS011;8691;50.828;4.700;2023-11-19T05:35:39;16.57;;;2.50;;
17151;SDS011;8691;50.828;4.700;2023-11-19T05:38:06;11.40;;;1.93;;
17151;SDS011;8691;50.828;4.700;2023-11-19T05:40:32;7.60;;;1.93;;
17151;SDS011;8691;50.828;4.700;2023-11-19T05:42:59;15.70;;;2.70;;
17151;SDS011;8691;50.828;4.700;2023-11-19T05:45:26;17.77;;;3.60;;
17151;SDS011;8691;50.828;4.700;2023-11-19T05:47:53;18.65;;;3.83;;
17151;SDS011;8691;50.828;4.700;2023-11-19T05:50:20;18.00;;;3.50;;
17151;SDS011;8691;50.828;4.700;2023-11-19T05:52:46;18.83;;;3.33;;
17151;SDS011;8691;50.828;4.700;2023-11-19T05:55:13;14.10;;;3.10;;
17151;SDS011;8691;50.828;4.700;2023-11-19T05:57:39;15.23;;;3.07;;
17151;SDS011;8691;50.828;4.700;2023-11-19T06:00:06;16.37;;;2.93;;
17151;SDS011;8691;50.828;4.700;2023-11-19T06:02:33;15.63;;;2.73;;
17151;SDS011;8691;50.828;4.700;2023-11-19T06:05:00;17.57;;;3.30;;
17151;SDS011;8691;50.828;4.700;2023-11-19T06:07:27;20.93;;;3.40;;
17151;SDS011;8691;50.828;4.700;2023-11-19T06:09:53;15.97;;;2.60;;
17151;SDS011;8691;50.828;4.700;2023-11-19T06:12:20;20.10;;;3.07;;
17151;SDS011;8691;50.828;4.700;2023-11-19T06:14:47;18.13;;;2.53;;
17151;SDS011;8691;50.828;4.700;2023-11-19T06:17:13;20.17;;;3.27;;
17151;SDS011;8691;50.828;4.700;2023-11-19T06:19:40;20.50;;;4.20;;
17151;SDS011;8691;50.828;4.700;2023-11-19T06:22:07;17.97;;;3.87;;
17151;SDS011;8691;50.828;4.700;2023-11-19T06:24:35;17.88;;;3.92;;
17151;SDS011;8691;50.828;4.700;2023-11-19T06:27:02;16.87;;;3.60;;
17151;SDS011;8691;50.828;4.700;2023-11-19T06:29:28;15.10;;;2.77;;
17151;SDS011;8691;50.828;4.700;2023-11-19T06:31:55;10.27;;;2.40;;
17151;SDS011;8691;50.828;4.700;2023-11-19T06:34:22;13.77;;;3.25;;
17151;SDS011;8691;50.828;4.700;2023-11-19T06:36:48;16.67;;;3.70;;
17151;SDS011;8691;50.828;4.700;2023-11-19T06:39:15;15.00;;;3.87;;
17151;SDS011;8691;50.828;4.700;2023-11-19T06:41:45;12.97;;;2.70;;
17151;SDS011;8691;50.828;4.700;2023-11-19T06:44:11;14.60;;;2.40;;
17151;SDS011;8691;50.828;4.700;2023-11-19T06:46:39;12.07;;;2.90;;
17151;SDS011;8691;50.828;4.700;2023-11-19T06:49:05;9.57;;;1.80;;
17151;SDS011;8691;50.828;4.700;2023-11-19T06:51:32;16.37;;;3.80;;
17151;SDS011;8691;50.828;4.700;2023-11-19T06:53:59;15.17;;;3.13;;
17151;SDS011;8691;50.828;4.700;2023-11-19T06:56:25;14.00;;;3.10;;
17151;SDS011;8691;50.828;4.700;2023-11-19T06:58:52;16.85;;;3.12;;
17151;SDS011;8691;50.828;4.700;2023-11-19T07:01:19;15.07;;;3.25;;
17151;SDS011;8691;50.828;4.700;2023-11-19T07:03:46;16.95;;;3.55;;
17151;SDS011;8691;50.828;4.700;2023-11-19T07:06:14;13.55;;;3.08;;
17151;SDS011;8691;50.828;4.700;2023-11-19T07:08:41;17.27;;;3.47;;
17151;SDS011;8691;50.828;4.700;2023-11-19T07:11:08;11.33;;;2.60;;
17151;SDS011;8691;50.828;4.700;2023-11-19T07:13:35;16.23;;;3.50;;
17151;SDS011;8691;50.828;4.700;2023-11-19T07:16:03;15.55;;;2.83;;
17151;SDS011;8691;50.828;4.700;2023-11-19T07:18:29;16.00;;;3.80;;
17151;SDS011;8691;50.828;4.700;2023-11-19T07:20:57;12.43;;;3.43;;
17151;SDS011;8691;50.828;4.700;2023-11-19T07:23:23;14.90;;;3.53;;
17151;SDS011;8691;50.828;4.700;2023-11-19T07:25:51;18.10;;;3.70;;
17151;SDS011;8691;50.828;4.700;2023-11-19T07:28:18;14.32;;;3.75;;
17151;SDS011;8691;50.828;4.700;2023-11-19T07:30:45;17.08;;;3.88;;
17151;SDS011;8691;50.828;4.700;2023-11-19T07:33:12;15.20;;;3.50;;
17151;SDS011;8691;50.828;4.700;2023-11-19T07:35:39;16.17;;;3.10;;
17151;SDS011;8691;50.828;4.700;2023-11-19T07:38:05;17.27;;;3.35;;
17151;SDS011;8691;50.828;4.700;2023-11-19T07:40:32;15.05;;;3.53;;
17151;SDS011;8691;50.828;4.700;2023-11-19T07:42:59;14.43;;;2.57;;
17151;SDS011;8691;50.828;4.700;2023-11-19T07:45:26;17.38;;;3.47;;
17151;SDS011;8691;50.828;4.700;2023-11-19T07:47:53;11.73;;;2.70;;
17151;SDS011;8691;50.828;4.700;2023-11-19T07:50:21;14.20;;;2.90;;
17151;SDS011;8691;50.828;4.700;2023-11-19T07:52:48;17.17;;;3.67;;
17151;SDS011;8691;50.828;4.700;2023-11-19T07:55:15;17.70;;;3.53;;
17151;SDS011;8691;50.828;4.700;2023-11-19T07:57:42;18.65;;;3.70;;
17151;SDS011;8691;50.828;4.700;2023-11-19T08:00:09;15.90;;;4.00;;
17151;SDS011;8691;50.828;4.700;2023-11-19T08:02:38;15.85;;;3.58;;
17151;SDS011;8691;50.828;4.700;2023-11-19T08:05:05;17.25;;;4.18;;
17151;SDS011;8691;50.828;4.700;2023-11-19T08:07:32;14.85;;;3.85;;
17151;SDS011;8691;50.828;4.700;2023-11-19T08:09:59;17.87;;;3.77;;
17151;SDS011;8691;50.828;4.700;2023-11-19T08:12:26;14.80;;;3.40;;
17151;SDS011;8691;50.828;4.700;2023-11-19T08:14:53;14.82;;;3.08;;
17151;SDS011;8691;50.828;4.700;2023-11-19T08:17:20;17.42;;;4.00;;
17151;SDS011;8691;50.828;4.700;2023-11-19T08:19:47;14.43;;;3.60;;
17151;SDS011;8691;50.828;4.700;2023-11-19T08:22:14;15.93;;;3.50;;
17151;SDS011;8691;50.828;4.700;2023-11-19T08:24:41;13.93;;;3.58;;
17151;SDS011;8691;50.828;4.700;2023-11-19T08:27:08;16.58;;;3.95;;
17151;SDS011;8691;50.828;4.700;2023-11-19T08:29:35;16.00;;;4.00;;
17151;SDS011;8691;50.828;4.700;2023-11-19T08:32:02;17.02;;;4.25;;
17151;SDS011;8691;50.828;4.700;2023-11-19T08:34:29;15.20;;;4.03;;
17151;SDS011;8691;50.828;4.700;2023-11-19T08:36:56;16.17;;;4.73;;
17151;SDS011;8691;50.828;4.700;2023-11-19T08:39:23;14.55;;;4.00;;
17151;SDS011;8691;50.828;4.700;2023-11-19T08:41:50;13.87;;;3.63;;
17151;SDS011;8691;50.828;4.700;2023-11-19T08:44:17;16.77;;;4.13;;
17151;SDS011;8691;50.828;4.700;2023-11-19T08:46:50;13.98;;;3.60;;
17151;SDS011;8691;50.828;4.700;2023-11-19T08:49:17;14.03;;;4.10;;
17151;SDS011;8691;50.828;4.700;2023-11-19T08:51:44;16.20;;;4.00;;
17151;SDS011;8691;50.828;4.700;2023-11-19T08:54:12;13.63;;;3.50;;
17151;SDS011;8691;50.828;4.700;2023-11-19T08:56:39;13.50;;;3.37;;
17151;SDS011;8691;50.828;4.700;2023-11-19T08:59:06;14.93;;;3.67;;
17151;SDS011;8691;50.828;4.700;2023-11-19T09:01:33;14.43;;;3.83;;
17151;SDS011;8691;50.828;4.700;2023-11-19T09:03:59;12.43;;;3.20;;
17151;SDS011;8691;50.828;4.700;2023-11-19T09:06:26;14.10;;;3.40;;
17151;SDS011;8691;50.828;4.700;2023-11-19T09:08:54;16.38;;;3.85;;
17151;SDS011;8691;50.828;4.700;2023-11-19T09:11:22;14.80;;;3.87;;
17151;SDS011;8691;50.828;4.700;2023-11-19T09:13:49;13.57;;;3.27;;
17151;SDS011;8691;50.828;4.700;2023-11-19T09:16:15;15.73;;;4.03;;
17151;SDS011;8691;50.828;4.700;2023-11-19T09:18:42;18.60;;;3.93;;
17151;SDS011;8691;50.828;4.700;2023-11-19T09:21:12;15.65;;;3.67;;
17151;SDS011;8691;50.828;4.700;2023-11-19T09:23:39;14.43;;;4.07;;
17151;SDS011;8691;50.828;4.700;2023-11-19T09:26:08;13.38;;;3.15;;
17151;SDS011;8691;50.828;4.700;2023-11-19T09:28:33;13.07;;;3.10;;
17151;SDS011;8691;50.828;4.700;2023-11-19T09:31:01;13.50;;;3.60;;
17151;SDS011;8691;50.828;4.700;2023-11-19T09:33:28;11.97;;;3.33;;
17151;SDS011;8691;50.828;4.700;2023-11-19T09:35:54;12.02;;;3.05;;
17151;SDS011;8691;50.828;4.700;2023-11-19T09:38:21;14.85;;;3.30;;
17151;SDS011;8691;50.828;4.700;2023-11-19T09:40:48;13.12;;;3.72;;
17151;SDS011;8691;50.828;4.700;2023-11-19T09:43:15;13.48;;;3.25;;
17151;SDS011;8691;50.828;4.700;2023-11-19T09:45:49;11.60;;;2.90;;
17151;SDS011;8691;50.828;4.700;2023-11-19T09:48:18;12.30;;;3.00;;
17151;SDS011;8691;50.828;4.700;2023-11-19T09:50:48;13.40;;;3.33;;
17151;SDS011;8691;50.828;4.700;2023-11-19T09:53:15;15.27;;;3.22;;
17151;SDS011;8691;50.828;4.700;2023-11-19T09:55:42;11.57;;;2.80;;
17151;SDS011;8691;50.828;4.700;2023-11-19T09:58:09;10.35;;;2.88;;
17151;SDS011;8691;50.828;4.700;2023-11-19T10:00:36;12.97;;;2.90;;
17151;SDS011;8691;50.828;4.700;2023-11-19T10:03:02;12.63;;;3.00;;
17151;SDS011;8691;50.828;4.700;2023-11-19T10:05:29;10.57;;;2.90;;
17151;SDS011;8691;50.828;4.700;2023-11-19T10:07:56;14.12;;;3.40;;
17151;SDS011;8691;50.828;4.700;2023-11-19T10:10:23;11.95;;;3.50;;
17151;SDS011;8691;50.828;4.700;2023-11-19T10:12:51;12.27;;;2.93;;
17151;SDS011;8691;50.828;4.700;2023-11-19T10:15:20;11.83;;;3.17;;
17151;SDS011;8691;50.828;4.700;2023-11-19T10:17:47;12.10;;;3.03;;
17151;SDS011;8691;50.828;4.700;2023-11-19T10:20:14;12.37;;;3.40;;
17151;SDS011;8691;50.828;4.700;2023-11-19T10:22:41;12.60;;;3.17;;
17151;SDS011;8691;50.828;4.700;2023-11-19T10:25:24;10.83;;;2.87;;
17151;SDS011;8691;50.828;4.700;2023-11-19T10:27:50;14.27;;;3.40;;
17151;SDS011;8691;50.828;4.700;2023-11-19T10:30:18;13.62;;;3.10;;
17151;SDS011;8691;50.828;4.700;2023-11-19T10:33:06;9.62;;;2.80;;
17151;SDS011;8691;50.828;4.700;2023-11-19T10:35:33;12.82;;;3.38;;
17151;SDS011;8691;50.828;4.700;2023-11-19T10:38:00;12.48;;;2.95;;
17151;SDS011;8691;50.828;4.700;2023-11-19T10:40:38;11.90;;;2.90;;
17151;SDS011;8691;50.828;4.700;2023-11-19T10:43:08;13.23;;;3.43;;
17151;SDS011;8691;50.828;4.700;2023-11-19T10:45:35;12.80;;;3.20;;
17151;SDS011;8691;50.828;4.700;2023-11-19T10:48:03;11.90;;;2.80;;
17151;SDS011;8691;50.828;4.700;2023-11-19T10:50:29;10.70;;;3.10;;
17151;SDS011;8691;50.828;4.700;2023-11-19T10:52:57;13.25;;;3.00;;
17151;SDS011;8691;50.828;4.700;2023-11-19T10:55:32;17.35;;;3.53;;
17151;SDS011;8691;50.828;4.700;2023-11-19T10:57:59;10.90;;;2.47;;
17151;SDS011;8691;50.828;4.700;2023-11-19T11:00:26;12.97;;;2.87;;
17151;SDS011;8691;50.828;4.700;2023-11-19T11:02:54;9.25;;;2.70;;
17151;SDS011;8691;50.828;4.700;2023-11-19T11:05:20;10.18;;;2.80;;
17151;SDS011;8691;50.828;4.700;2023-11-19T11:07:47;11.00;;;2.60;;
17151;SDS011;8691;50.828;4.700;2023-11-19T11:10:14;9.00;;;2.62;;
17151;SDS011;8691;50.828;4.700;2023-11-19T11:12:41;11.83;;;2.80;;
17151;SDS011;8691;50.828;4.700;2023-11-19T11:15:07;12.95;;;3.50;;
17151;SDS011;8691;50.828;4.700;2023-11-19T11:17:34;10.83;;;2.83;;
17151;SDS011;8691;50.828;4.700;2023-11-19T11:20:01;13.05;;;3.00;;
17151;SDS011;8691;50.828;4.700;2023-11-19T11:22:29;11.73;;;2.75;;
17151;SDS011;8691;50.828;4.700;2023-11-19T11:25:06;12.23;;;2.53;;
17151;SDS011;8691;50.828;4.700;2023-11-19T11:27:31;11.30;;;2.97;;
17151;SDS011;8691;50.828;4.700;2023-11-19T11:30:27;12.52;;;3.05;;
17151;SDS011;8691;50.828;4.700;2023-11-19T11:35:41;11.05;;;3.05;;
17151;SDS011;8691;50.828;4.700;2023-11-19T11:38:08;13.30;;;3.20;;
17151;SDS011;8691;50.828;4.700;2023-11-19T11:40:35;12.18;;;2.80;;
17151;SDS011;8691;50.828;4.700;2023-11-19T11:43:30;11.50;;;3.00;;
17151;SDS011;8691;50.828;4.700;2023-11-19T11:45:39;15.57;;;2.83;;
17151;SDS011;8691;50.828;4.700;2023-11-19T11:48:06;12.80;;;3.23;;
17151;SDS011;8691;50.828;4.700;2023-11-19T11:50:32;12.50;;;2.90;;
17151;SDS011;8691;50.828;4.700;2023-11-19T11:55:36;13.02;;;3.38;;
17151;SDS011;8691;50.828;4.700;2023-11-19T11:58:02;14.32;;;3.40;;
17151;SDS011;8691;50.828;4.700;2023-11-19T12:00:30;13.23;;;3.35;;
17151;SDS011;8691;50.828;4.700;2023-11-19T12:02:57;14.20;;;3.50;;
17151;SDS011;8691;50.828;4.700;2023-11-19T12:05:24;13.40;;;2.95;;
17151;SDS011;8691;50.828;4.700;2023-11-19T12:08:01;13.27;;;2.40;;
17151;SDS011;8691;50.828;4.700;2023-11-19T12:10:31;13.45;;;3.00;;
17151;SDS011;8691;50.828;4.700;2023-11-19T12:13:00;10.70;;;2.67;;
17151;SDS011;8691;50.828;4.700;2023-11-19T12:15:27;16.52;;;3.45;;
17151;SDS011;8691;50.828;4.700;2023-11-19T12:17:56;13.12;;;2.42;;
17151;SDS011;8691;50.828;4.700;2023-11-19T12:20:23;14.43;;;3.00;;
17151;SDS011;8691;50.828;4.700;2023-11-19T12:22:50;10.20;;;2.55;;
17151;SDS011;8691;50.828;4.700;2023-11-19T12:25:17;11.15;;;2.47;;
17151;SDS011;8691;50.828;4.700;2023-11-19T12:27:44;9.67;;;2.50;;
17151;SDS011;8691;50.828;4.700;2023-11-19T12:30:23;7.20;;;2.07;;
17151;SDS011;8691;50.828;4.700;2023-11-19T12:32:52;7.68;;;2.45;;
17151;SDS011;8691;50.828;4.700;2023-11-19T12:35:22;9.93;;;2.20;;
17151;SDS011;8691;50.828;4.700;2023-11-19T12:37:50;7.53;;;1.95;;
17151;SDS011;8691;50.828;4.700;2023-11-19T12:42:45;10.55;;;2.50;;
17151;SDS011;8691;50.828;4.700;2023-11-19T12:45:15;11.23;;;2.80;;
17151;SDS011;8691;50.828;4.700;2023-11-19T12:47:45;8.05;;;2.62;;
17151;SDS011;8691;50.828;4.700;2023-11-19T12:50:14;13.57;;;2.93;;
17151;SDS011;8691;50.828;4.700;2023-11-19T12:52:41;11.50;;;2.78;;
17151;SDS011;8691;50.828;4.700;2023-11-19T12:55:27;13.05;;;2.92;;
17151;SDS011;8691;50.828;4.700;2023-11-19T12:57:53;10.37;;;2.43;;
17151;SDS011;8691;50.828;4.700;2023-11-19T13:00:24;14.20;;;3.22;;
17151;SDS011;8691;50.828;4.700;2023-11-19T13:02:50;11.57;;;2.87;;
17151;SDS011;8691;50.828;4.700;2023-11-19T13:05:33;10.62;;;2.88;;
17151;SDS011;8691;50.828;4.700;2023-11-19T13:08:05;13.20;;;3.10;;
17151;SDS011;8691;50.828;4.700;2023-11-19T13:10:32;13.77;;;3.00;;
17151;SDS011;8691;50.828;4.700;2023-11-19T13:13:05;11.40;;;3.10;;
17151;SDS011;8691;50.828;4.700;2023-11-19T13:15:32;10.32;;;2.75;;
17151;SDS011;8691;50.828;4.700;2023-11-19T13:17:58;10.30;;;2.80;;
17151;SDS011;8691;50.828;4.700;2023-11-19T13:20:25;15.18;;;3.12;;
17151;SDS011;8691;50.828;4.700;2023-11-19T13:22:56;11.45;;;2.90;;
17151;SDS011;8691;50.828;4.700;2023-11-19T13:25:23;8.57;;;2.58;;
17151;SDS011;8691;50.828;4.700;2023-11-19T13:27:50;13.77;;;3.60;;
17151;SDS011;8691;50.828;4.700;2023-11-19T13:30:18;11.48;;;2.70;;
17151;SDS011;8691;50.828;4.700;2023-11-19T13:32:46;14.15;;;3.40;;
17151;SDS011;8691;50.828;4.700;2023-11-19T13:35:12;10.80;;;2.90;;
17151;SDS011;8691;50.828;4.700;2023-11-19T13:37:40;9.73;;;2.13;;
17151;SDS011;8691;50.828;4.700;2023-11-19T13:40:07;11.90;;;3.30;;
17151;SDS011;8691;50.828;4.700;2023-11-19T13:42:33;11.55;;;2.92;;
17151;SDS011;8691;50.828;4.700;2023-11-19T13:45:01;11.85;;;2.97;;
17151;SDS011;8691;50.828;4.700;2023-11-19T13:47:27;13.85;;;2.95;;
17151;SDS011;8691;50.828;4.700;2023-11-19T13:49:54;12.82;;;3.10;;
17151;SDS011;8691;50.828;4.700;2023-11-19T13:52:22;11.30;;;3.30;;
17151;SDS011;8691;50.828;4.700;2023-11-19T13:54:49;14.30;;;3.40;;
17151;SDS011;8691;50.828;4.700;2023-11-19T13:57:16;13.83;;;3.37;;
17151;SDS011;8691;50.828;4.700;2023-11-19T13:59:43;14.43;;;3.12;;
17151;SDS011;8691;50.828;4.700;2023-11-19T14:02:09;13.25;;;3.22;;
17151;SDS011;8691;50.828;4.700;2023-11-19T14:04:37;12.43;;;2.95;;
17151;SDS011;8691;50.828;4.700;2023-11-19T14:07:04;12.50;;;3.10;;
17151;SDS011;8691;50.828;4.700;2023-11-19T14:09:31;10.63;;;3.03;;
17151;SDS011;8691;50.828;4.700;2023-11-19T14:11:58;12.62;;;2.90;;
17151;SDS011;8691;50.828;4.700;2023-11-19T14:14:25;12.95;;;2.85;;
17151;SDS011;8691;50.828;4.700;2023-11-19T14:16:52;13.37;;;2.87;;
17151;SDS011;8691;50.828;4.700;2023-11-19T14:19:19;16.50;;;3.10;;
17151;SDS011;8691;50.828;4.700;2023-11-19T14:21:46;12.60;;;2.77;;
17151;SDS011;8691;50.828;4.700;2023-11-19T14:24:13;12.25;;;2.92;;
17151;SDS011;8691;50.828;4.700;2023-11-19T14:26:40;12.17;;;3.17;;
17151;SDS011;8691;50.828;4.700;2023-11-19T14:29:07;14.47;;;3.20;;
17151;SDS011;8691;50.828;4.700;2023-11-19T14:31:33;14.25;;;2.80;;
17151;SDS011;8691;50.828;4.700;2023-11-19T14:34:00;16.83;;;3.50;;
17151;SDS011;8691;50.828;4.700;2023-11-19T14:36:27;14.07;;;3.77;;
17151;SDS011;8691;50.828;4.700;2023-11-19T14:38:54;13.35;;;3.30;;
17151;SDS011;8691;50.828;4.700;2023-11-19T14:41:21;17.23;;;3.80;;
17151;SDS011;8691;50.828;4.700;2023-11-19T14:43:48;15.35;;;3.62;;
17151;SDS011;8691;50.828;4.700;2023-11-19T14:46:15;15.35;;;3.65;;
17151;SDS011;8691;50.828;4.700;2023-11-19T14:48:43;15.20;;;3.43;;
17151;SDS011;8691;50.828;4.700;2023-11-19T14:51:11;16.30;;;3.47;;
17151;SDS011;8691;50.828;4.700;2023-11-19T14:53:38;12.75;;;3.03;;
17151;SDS011;8691;50.828;4.700;2023-11-19T14:56:09;14.33;;;3.40;;
17151;SDS011;8691;50.828;4.700;2023-11-19T14:58:33;15.83;;;3.37;;
17151;SDS011;8691;50.828;4.700;2023-11-19T15:00:59;17.12;;;3.33;;